sensor_id;sensor_type;location;lat;lon;timestamp;temperature;humidity
19152;DHT22;9708;53.114;9.388;2023-04-29T00:00:13;10.30;99.90
19152;DHT22;9708;53.114;9.388;2023-04-29T00:02:40;10.30;99.90
19152;DHT22;9708;53.114;9.388;2023-04-29T00:05:08;10.40;99.90
19152;DHT22;9708;53.114;9.388;2023-04-29T00:07:35;10.40;99.90
19152;DHT22;9708;53.114;9.388;2023-04-29T00:10:03;10.30;99.90
19152;DHT22;9708;53.114;9.388;2023-04-29T00:12:29;10.20;99.90
19152;DHT22;9708;53.114;9.388;2023-04-29T00:14:57;10.30;99.90
19152;DHT22;9708;53.114;9.388;2023-04-29T00:17:25;10.30;99.90
19152;DHT22;9708;53.114;9.388;2023-04-29T00:19:51;10.40;99.90
19152;DHT22;9708;53.114;9.388;2023-04-29T00:22:20;10.30;99.90
19152;DHT22;9708;53.114;9.388;2023-04-29T00:24:47;10.30;99.90
19152;DHT22;9708;53.114;9.388;2023-04-29T00:27:14;10.30;99.90
19152;DHT22;9708;53.114;9.388;2023-04-29T00:29:42;10.30;99.90
19152;DHT22;9708;53.114;9.388;2023-04-29T00:32:09;10.40;99.90
19152;DHT22;9708;53.114;9.388;2023-04-29T00:34:35;10.40;99.90
19152;DHT22;9708;53.114;9.388;2023-04-29T00:37:02;10.30;99.90
19152;DHT22;9708;53.114;9.388;2023-04-29T00:39:30;10.30;99.90
19152;DHT22;9708;53.114;9.388;2023-04-29T00:41:57;10.20;99.90
19152;DHT22;9708;53.114;9.388;2023-04-29T00:44:24;10.30;99.90
19152;DHT22;9708;53.114;9.388;2023-04-29T00:46:50;10.20;99.90
19152;DHT22;9708;53.114;9.388;2023-04-29T00:49:17;10.20;99.90
19152;DHT22;9708;53.114;9.388;2023-04-29T00:51:44;10.20;99.90
19152;DHT22;9708;53.114;9.388;2023-04-29T00:54:12;10.20;99.90
19152;DHT22;9708;53.114;9.388;2023-04-29T00:56:42;10.20;99.90
19152;DHT22;9708;53.114;9.388;2023-04-29T00:59:10;10.20;99.90
19152;DHT22;9708;53.114;9.388;2023-04-29T01:01:40;10.30;99.90
19152;DHT22;9708;53.114;9.388;2023-04-29T01:04:07;10.20;99.90
19152;DHT22;9708;53.114;9.388;2023-04-29T01:06:44;10.20;99.90
19152;DHT22;9708;53.114;9.388;2023-04-29T01:09:27;10.20;99.90
19152;DHT22;9708;53.114;9.388;2023-04-29T01:12:05;10.10;99.90
19152;DHT22;9708;53.114;9.388;2023-04-29T01:14:34;10.00;99.90
19152;DHT22;9708;53.114;9.388;2023-04-29T01:17:06;10.10;99.90
19152;DHT22;9708;53.114;9.388;2023-04-29T01:19:43;10.10;99.90
19152;DHT22;9708;53.114;9.388;2023-04-29T01:22:11;10.10;99.90
19152;DHT22;9708;53.114;9.388;2023-04-29T01:24:40;10.00;99.90
19152;DHT22;9708;53.114;9.388;2023-04-29T01:27:16;10.10;99.90
19152;DHT22;9708;53.114;9.388;2023-04-29T01:29:52;10.10;99.90
19152;DHT22;9708;53.114;9.388;2023-04-29T01:32:40;10.10;99.90
19152;DHT22;9708;53.114;9.388;2023-04-29T01:35:15;10.00;99.90
19152;DHT22;9708;53.114;9.388;2023-04-29T01:37:51;10.00;99.90
19152;DHT22;9708;53.114;9.388;2023-04-29T01:40:25;10.00;99.90
19152;DHT22;9708;53.114;9.388;2023-04-29T01:42:58;10.00;99.90
19152;DHT22;9708;53.114;9.388;2023-04-29T01:45:26;9.90;99.90
19152;DHT22;9708;53.114;9.388;2023-04-29T01:47:54;9.90;99.90
19152;DHT22;9708;53.114;9.388;2023-04-29T01:50:22;9.90;99.90
19152;DHT22;9708;53.114;9.388;2023-04-29T01:52:48;9.90;99.90
19152;DHT22;9708;53.114;9.388;2023-04-29T01:55:16;9.80;99.90
19152;DHT22;9708;53.114;9.388;2023-04-29T01:57:44;9.80;99.90
19152;DHT22;9708;53.114;9.388;2023-04-29T02:00:11;9.80;99.90
19152;DHT22;9708;53.114;9.388;2023-04-29T02:02:38;9.80;99.90
19152;DHT22;9708;53.114;9.388;2023-04-29T02:05:05;9.80;99.90
19152;DHT22;9708;53.114;9.388;2023-04-29T02:07:32;9.70;99.90
19152;DHT22;9708;53.114;9.388;2023-04-29T02:09:59;9.70;99.90
19152;DHT22;9708;53.114;9.388;2023-04-29T02:12:25;9.70;99.90
19152;DHT22;9708;53.114;9.388;2023-04-29T02:14:54;9.70;99.90
19152;DHT22;9708;53.114;9.388;2023-04-29T02:17:20;9.70;99.90
19152;DHT22;9708;53.114;9.388;2023-04-29T02:19:47;9.70;99.90
19152;DHT22;9708;53.114;9.388;2023-04-29T02:22:14;9.70;99.90
19152;DHT22;9708;53.114;9.388;2023-04-29T02:24:41;9.70;99.90
19152;DHT22;9708;53.114;9.388;2023-04-29T02:27:08;9.70;99.90
19152;DHT22;9708;53.114;9.388;2023-04-29T02:29:34;9.70;99.90
19152;DHT22;9708;53.114;9.388;2023-04-29T02:32:03;9.70;99.90
19152;DHT22;9708;53.114;9.388;2023-04-29T02:34:30;9.60;99.90
19152;DHT22;9708;53.114;9.388;2023-04-29T02:36:57;9.70;99.90
19152;DHT22;9708;53.114;9.388;2023-04-29T02:39:24;9.60;99.90
19152;DHT22;9708;53.114;9.388;2023-04-29T02:41:53;9.70;99.90
19152;DHT22;9708;53.114;9.388;2023-04-29T02:44:20;9.70;99.90
19152;DHT22;9708;53.114;9.388;2023-04-29T02:46:47;9.60;99.90
19152;DHT22;9708;53.114;9.388;2023-04-29T02:49:15;9.60;99.90
19152;DHT22;9708;53.114;9.388;2023-04-29T02:51:42;9.60;99.90
19152;DHT22;9708;53.114;9.388;2023-04-29T02:54:08;9.60;99.90
19152;DHT22;9708;53.114;9.388;2023-04-29T02:56:35;9.60;99.90
19152;DHT22;9708;53.114;9.388;2023-04-29T02:59:02;9.60;99.90
19152;DHT22;9708;53.114;9.388;2023-04-29T03:01:29;9.60;99.90
19152;DHT22;9708;53.114;9.388;2023-04-29T03:03:56;9.50;99.90
19152;DHT22;9708;53.114;9.388;2023-04-29T03:06:24;9.50;99.90
19152;DHT22;9708;53.114;9.388;2023-04-29T03:08:52;9.60;99.90
19152;DHT22;9708;53.114;9.388;2023-04-29T03:11:19;9.70;99.90
19152;DHT22;9708;53.114;9.388;2023-04-29T03:13:46;9.60;99.90
19152;DHT22;9708;53.114;9.388;2023-04-29T03:16:13;9.50;99.90
19152;DHT22;9708;53.114;9.388;2023-04-29T03:18:41;9.60;99.90
19152;DHT22;9708;53.114;9.388;2023-04-29T03:21:08;9.50;99.90
19152;DHT22;9708;53.114;9.388;2023-04-29T03:23:36;9.50;99.90
19152;DHT22;9708;53.114;9.388;2023-04-29T03:26:04;9.50;99.90
19152;DHT22;9708;53.114;9.388;2023-04-29T03:28:31;9.40;99.90
19152;DHT22;9708;53.114;9.388;2023-04-29T03:30:58;9.40;99.90
19152;DHT22;9708;53.114;9.388;2023-04-29T03:33:25;9.40;99.90
19152;DHT22;9708;53.114;9.388;2023-04-29T03:35:52;9.40;99.90
19152;DHT22;9708;53.114;9.388;2023-04-29T03:38:19;9.40;99.90
19152;DHT22;9708;53.114;9.388;2023-04-29T03:40:47;9.50;99.90
19152;DHT22;9708;53.114;9.388;2023-04-29T03:43:14;9.40;99.90
19152;DHT22;9708;53.114;9.388;2023-04-29T03:45:41;9.50;99.90
19152;DHT22;9708;53.114;9.388;2023-04-29T03:48:07;9.40;99.90
19152;DHT22;9708;53.114;9.388;2023-04-29T03:50:35;9.40;99.90
19152;DHT22;9708;53.114;9.388;2023-04-29T03:53:02;9.30;99.90
19152;DHT22;9708;53.114;9.388;2023-04-29T03:55:28;9.30;99.90
19152;DHT22;9708;53.114;9.388;2023-04-29T03:57:56;9.30;99.90
19152;DHT22;9708;53.114;9.388;2023-04-29T04:00:23;9.30;99.90
19152;DHT22;9708;53.114;9.388;2023-04-29T04:02:50;9.30;99.90
19152;DHT22;9708;53.114;9.388;2023-04-29T04:05:17;9.30;99.90
19152;DHT22;9708;53.114;9.388;2023-04-29T04:07:45;9.50;99.90
19152;DHT22;9708;53.114;9.388;2023-04-29T04:10:12;9.40;99.90
19152;DHT22;9708;53.114;9.388;2023-04-29T04:12:39;9.30;99.90
19152;DHT22;9708;53.114;9.388;2023-04-29T04:15:08;9.40;99.90
19152;DHT22;9708;53.114;9.388;2023-04-29T04:17:35;9.40;99.90
19152;DHT22;9708;53.114;9.388;2023-04-29T04:20:02;9.40;99.90
19152;DHT22;9708;53.114;9.388;2023-04-29T04:22:29;9.40;99.90
19152;DHT22;9708;53.114;9.388;2023-04-29T04:24:56;9.50;99.90
19152;DHT22;9708;53.114;9.388;2023-04-29T04:27:22;9.40;99.90
19152;DHT22;9708;53.114;9.388;2023-04-29T04:29:52;9.40;99.90
19152;DHT22;9708;53.114;9.388;2023-04-29T04:32:20;9.40;99.90
19152;DHT22;9708;53.114;9.388;2023-04-29T04:34:48;9.40;99.90
19152;DHT22;9708;53.114;9.388;2023-04-29T04:37:15;9.30;99.90
19152;DHT22;9708;53.114;9.388;2023-04-29T04:39:42;9.30;99.90
19152;DHT22;9708;53.114;9.388;2023-04-29T04:42:09;9.30;99.90
19152;DHT22;9708;53.114;9.388;2023-04-29T04:44:35;9.30;99.90
19152;DHT22;9708;53.114;9.388;2023-04-29T04:47:03;9.30;99.90
19152;DHT22;9708;53.114;9.388;2023-04-29T04:49:32;9.40;99.90
19152;DHT22;9708;53.114;9.388;2023-04-29T04:51:58;9.40;99.90
19152;DHT22;9708;53.114;9.388;2023-04-29T04:54:25;9.30;99.90
19152;DHT22;9708;53.114;9.388;2023-04-29T04:56:52;9.40;99.90
19152;DHT22;9708;53.114;9.388;2023-04-29T04:59:18;9.40;99.90
19152;DHT22;9708;53.114;9.388;2023-04-29T05:01:45;9.40;99.90
19152;DHT22;9708;53.114;9.388;2023-04-29T05:04:12;9.50;99.90
19152;DHT22;9708;53.114;9.388;2023-04-29T05:06:41;9.50;99.90
19152;DHT22;9708;53.114;9.388;2023-04-29T05:09:08;9.60;99.90
19152;DHT22;9708;53.114;9.388;2023-04-29T05:11:35;9.50;99.90
19152;DHT22;9708;53.114;9.388;2023-04-29T05:14:02;9.50;99.90
19152;DHT22;9708;53.114;9.388;2023-04-29T05:16:29;9.60;99.90
19152;DHT22;9708;53.114;9.388;2023-04-29T05:18:56;9.60;99.90
19152;DHT22;9708;53.114;9.388;2023-04-29T05:21:23;9.70;99.90
19152;DHT22;9708;53.114;9.388;2023-04-29T05:23:51;9.80;99.90
19152;DHT22;9708;53.114;9.388;2023-04-29T05:26:18;9.80;99.90
19152;DHT22;9708;53.114;9.388;2023-04-29T05:28:44;9.70;99.90
19152;DHT22;9708;53.114;9.388;2023-04-29T05:31:11;9.80;99.90
19152;DHT22;9708;53.114;9.388;2023-04-29T05:33:38;9.90;99.90
19152;DHT22;9708;53.114;9.388;2023-04-29T05:36:05;10.00;99.90
19152;DHT22;9708;53.114;9.388;2023-04-29T05:38:32;10.20;99.90
19152;DHT22;9708;53.114;9.388;2023-04-29T05:41:00;10.40;99.90
19152;DHT22;9708;53.114;9.388;2023-04-29T05:43:27;11.00;99.90
19152;DHT22;9708;53.114;9.388;2023-04-29T05:45:54;11.60;99.90
19152;DHT22;9708;53.114;9.388;2023-04-29T05:48:21;12.50;99.90
19152;DHT22;9708;53.114;9.388;2023-04-29T05:50:49;13.50;99.90
19152;DHT22;9708;53.114;9.388;2023-04-29T05:53:16;14.30;99.90
19152;DHT22;9708;53.114;9.388;2023-04-29T05:55:42;14.50;99.90
19152;DHT22;9708;53.114;9.388;2023-04-29T05:58:12;15.00;99.90
19152;DHT22;9708;53.114;9.388;2023-04-29T06:00:39;16.30;99.90
19152;DHT22;9708;53.114;9.388;2023-04-29T06:03:08;17.40;99.90
19152;DHT22;9708;53.114;9.388;2023-04-29T06:05:35;17.60;99.90
19152;DHT22;9708;53.114;9.388;2023-04-29T06:08:02;18.00;99.90
19152;DHT22;9708;53.114;9.388;2023-04-29T06:10:30;17.70;99.90
19152;DHT22;9708;53.114;9.388;2023-04-29T06:12:57;18.20;99.90
19152;DHT22;9708;53.114;9.388;2023-04-29T06:15:26;18.40;99.90
19152;DHT22;9708;53.114;9.388;2023-04-29T06:17:53;17.90;99.90
19152;DHT22;9708;53.114;9.388;2023-04-29T06:20:20;16.70;99.90
19152;DHT22;9708;53.114;9.388;2023-04-29T06:22:46;15.30;99.90
19152;DHT22;9708;53.114;9.388;2023-04-29T06:25:14;14.40;99.90
19152;DHT22;9708;53.114;9.388;2023-04-29T06:27:40;13.90;99.90
19152;DHT22;9708;53.114;9.388;2023-04-29T06:30:08;14.10;99.90
19152;DHT22;9708;53.114;9.388;2023-04-29T06:32:37;14.10;99.90
19152;DHT22;9708;53.114;9.388;2023-04-29T06:35:04;14.40;99.90
19152;DHT22;9708;53.114;9.388;2023-04-29T06:37:31;14.40;99.90
19152;DHT22;9708;53.114;9.388;2023-04-29T06:39:58;14.50;99.90
19152;DHT22;9708;53.114;9.388;2023-04-29T06:42:25;14.20;99.90
19152;DHT22;9708;53.114;9.388;2023-04-29T06:44:52;13.80;99.90
19152;DHT22;9708;53.114;9.388;2023-04-29T06:47:18;13.40;99.90
19152;DHT22;9708;53.114;9.388;2023-04-29T06:49:47;13.20;99.90
19152;DHT22;9708;53.114;9.388;2023-04-29T06:52:14;13.00;99.90
19152;DHT22;9708;53.114;9.388;2023-04-29T06:54:40;12.90;99.90
19152;DHT22;9708;53.114;9.388;2023-04-29T06:57:07;12.90;99.90
19152;DHT22;9708;53.114;9.388;2023-04-29T06:59:34;12.70;99.90
19152;DHT22;9708;53.114;9.388;2023-04-29T07:02:01;12.50;99.90
19152;DHT22;9708;53.114;9.388;2023-04-29T07:04:27;12.50;99.90
19152;DHT22;9708;53.114;9.388;2023-04-29T07:06:56;12.70;99.90
19152;DHT22;9708;53.114;9.388;2023-04-29T07:09:24;12.60;99.90
19152;DHT22;9708;53.114;9.388;2023-04-29T07:11:52;12.40;99.90
19152;DHT22;9708;53.114;9.388;2023-04-29T07:14:19;12.40;99.90
19152;DHT22;9708;53.114;9.388;2023-04-29T07:16:46;12.30;99.90
19152;DHT22;9708;53.114;9.388;2023-04-29T07:19:13;12.40;99.90
19152;DHT22;9708;53.114;9.388;2023-04-29T07:21:40;12.30;99.90
19152;DHT22;9708;53.114;9.388;2023-04-29T07:24:08;12.40;99.90
19152;DHT22;9708;53.114;9.388;2023-04-29T07:26:35;12.50;99.90
19152;DHT22;9708;53.114;9.388;2023-04-29T07:29:02;12.50;99.90
19152;DHT22;9708;53.114;9.388;2023-04-29T07:31:28;12.30;99.90
19152;DHT22;9708;53.114;9.388;2023-04-29T07:33:55;12.30;99.90
19152;DHT22;9708;53.114;9.388;2023-04-29T07:36:22;12.30;99.90
19152;DHT22;9708;53.114;9.388;2023-04-29T07:38:49;12.20;99.90
19152;DHT22;9708;53.114;9.388;2023-04-29T07:41:17;12.30;99.90
19152;DHT22;9708;53.114;9.388;2023-04-29T07:43:44;12.40;99.90
19152;DHT22;9708;53.114;9.388;2023-04-29T07:46:11;12.70;99.90
19152;DHT22;9708;53.114;9.388;2023-04-29T07:48:38;12.80;99.90
19152;DHT22;9708;53.114;9.388;2023-04-29T07:51:04;12.90;99.90
19152;DHT22;9708;53.114;9.388;2023-04-29T07:53:31;13.20;99.90
19152;DHT22;9708;53.114;9.388;2023-04-29T07:55:58;13.40;99.90
19152;DHT22;9708;53.114;9.388;2023-04-29T07:58:31;13.80;99.90
19152;DHT22;9708;53.114;9.388;2023-04-29T08:01:04;14.00;99.90
19152;DHT22;9708;53.114;9.388;2023-04-29T08:03:31;14.20;99.90
19152;DHT22;9708;53.114;9.388;2023-04-29T08:06:00;14.30;99.90
19152;DHT22;9708;53.114;9.388;2023-04-29T08:08:27;14.20;99.90
19152;DHT22;9708;53.114;9.388;2023-04-29T08:10:53;14.20;99.90
19152;DHT22;9708;53.114;9.388;2023-04-29T08:13:20;14.50;99.90
19152;DHT22;9708;53.114;9.388;2023-04-29T08:15:48;14.80;99.90
19152;DHT22;9708;53.114;9.388;2023-04-29T08:18:16;14.70;99.90
19152;DHT22;9708;53.114;9.388;2023-04-29T08:20:43;14.50;99.90
19152;DHT22;9708;53.114;9.388;2023-04-29T08:23:09;14.40;99.90
19152;DHT22;9708;53.114;9.388;2023-04-29T08:25:40;14.70;99.90
19152;DHT22;9708;53.114;9.388;2023-04-29T08:28:07;14.70;99.90
19152;DHT22;9708;53.114;9.388;2023-04-29T08:30:37;14.80;99.90
19152;DHT22;9708;53.114;9.388;2023-04-29T08:33:05;14.70;99.90
19152;DHT22;9708;53.114;9.388;2023-04-29T08:35:32;14.50;99.90
19152;DHT22;9708;53.114;9.388;2023-04-29T08:37:59;14.20;99.90
19152;DHT22;9708;53.114;9.388;2023-04-29T08:40:26;14.30;99.90
19152;DHT22;9708;53.114;9.388;2023-04-29T08:42:54;14.70;99.90
19152;DHT22;9708;53.114;9.388;2023-04-29T08:45:22;14.60;99.90
19152;DHT22;9708;53.114;9.388;2023-04-29T08:47:50;14.80;99.90
19152;DHT22;9708;53.114;9.388;2023-04-29T08:50:19;15.20;99.90
19152;DHT22;9708;53.114;9.388;2023-04-29T08:52:46;15.70;99.90
19152;DHT22;9708;53.114;9.388;2023-04-29T08:55:13;15.20;99.90
19152;DHT22;9708;53.114;9.388;2023-04-29T08:57:40;15.30;99.90
19152;DHT22;9708;53.114;9.388;2023-04-29T09:00:09;15.50;99.90
19152;DHT22;9708;53.114;9.388;2023-04-29T09:02:42;15.50;99.90
19152;DHT22;9708;53.114;9.388;2023-04-29T09:05:09;15.80;99.90
19152;DHT22;9708;53.114;9.388;2023-04-29T09:07:38;15.60;99.90
19152;DHT22;9708;53.114;9.388;2023-04-29T09:10:07;15.60;99.90
19152;DHT22;9708;53.114;9.388;2023-04-29T09:12:34;15.70;99.90
19152;DHT22;9708;53.114;9.388;2023-04-29T09:15:01;15.80;99.90
19152;DHT22;9708;53.114;9.388;2023-04-29T09:17:39;15.90;99.90
19152;DHT22;9708;53.114;9.388;2023-04-29T09:20:27;16.30;99.90
19152;DHT22;9708;53.114;9.388;2023-04-29T09:22:57;17.20;99.90
19152;DHT22;9708;53.114;9.388;2023-04-29T09:25:25;17.20;99.90
19152;DHT22;9708;53.114;9.388;2023-04-29T09:27:53;17.10;99.90
19152;DHT22;9708;53.114;9.388;2023-04-29T09:30:20;17.30;99.90
19152;DHT22;9708;53.114;9.388;2023-04-29T09:33:03;17.50;99.90
19152;DHT22;9708;53.114;9.388;2023-04-29T09:35:30;17.80;99.90
19152;DHT22;9708;53.114;9.388;2023-04-29T09:38:09;18.90;99.90
19152;DHT22;9708;53.114;9.388;2023-04-29T09:40:36;19.10;99.90
19152;DHT22;9708;53.114;9.388;2023-04-29T09:43:10;19.60;99.90
19152;DHT22;9708;53.114;9.388;2023-04-29T09:45:39;19.30;99.90
19152;DHT22;9708;53.114;9.388;2023-04-29T09:48:08;19.50;99.90
19152;DHT22;9708;53.114;9.388;2023-04-29T09:50:35;20.20;99.90
19152;DHT22;9708;53.114;9.388;2023-04-29T09:53:03;19.90;99.90
19152;DHT22;9708;53.114;9.388;2023-04-29T09:55:31;20.40;99.90
19152;DHT22;9708;53.114;9.388;2023-04-29T09:57:58;21.00;99.90
19152;DHT22;9708;53.114;9.388;2023-04-29T10:00:28;20.70;99.90
19152;DHT22;9708;53.114;9.388;2023-04-29T10:02:58;20.80;99.90
19152;DHT22;9708;53.114;9.388;2023-04-29T10:05:27;20.50;99.90
19152;DHT22;9708;53.114;9.388;2023-04-29T10:07:54;21.10;99.90
19152;DHT22;9708;53.114;9.388;2023-04-29T10:10:22;20.90;99.90
19152;DHT22;9708;53.114;9.388;2023-04-29T10:12:52;21.20;99.90
19152;DHT22;9708;53.114;9.388;2023-04-29T10:15:25;20.90;99.90
19152;DHT22;9708;53.114;9.388;2023-04-29T10:17:57;20.20;99.90
19152;DHT22;9708;53.114;9.388;2023-04-29T10:20:26;19.90;99.90
19152;DHT22;9708;53.114;9.388;2023-04-29T10:22:54;21.00;99.90
19152;DHT22;9708;53.114;9.388;2023-04-29T10:25:22;20.90;99.90
19152;DHT22;9708;53.114;9.388;2023-04-29T10:27:52;21.40;99.90
19152;DHT22;9708;53.114;9.388;2023-04-29T10:30:21;21.50;99.90
19152;DHT22;9708;53.114;9.388;2023-04-29T10:32:49;21.70;99.90
19152;DHT22;9708;53.114;9.388;2023-04-29T10:35:17;22.00;99.90
19152;DHT22;9708;53.114;9.388;2023-04-29T10:37:46;22.00;99.90
19152;DHT22;9708;53.114;9.388;2023-04-29T10:40:15;21.60;99.90
19152;DHT22;9708;53.114;9.388;2023-04-29T10:42:46;21.20;99.90
19152;DHT22;9708;53.114;9.388;2023-04-29T10:45:19;20.80;99.90
19152;DHT22;9708;53.114;9.388;2023-04-29T10:48:11;20.50;99.90
19152;DHT22;9708;53.114;9.388;2023-04-29T10:51:00;19.60;99.90
19152;DHT22;9708;53.114;9.388;2023-04-29T10:53:27;20.20;99.90
19152;DHT22;9708;53.114;9.388;2023-04-29T10:55:57;20.40;99.90
19152;DHT22;9708;53.114;9.388;2023-04-29T10:58:38;20.40;99.90
19152;DHT22;9708;53.114;9.388;2023-04-29T11:01:10;19.50;99.90
19152;DHT22;9708;53.114;9.388;2023-04-29T11:03:55;18.00;99.90
19152;DHT22;9708;53.114;9.388;2023-04-29T11:06:25;18.50;99.90
19152;DHT22;9708;53.114;9.388;2023-04-29T11:09:02;18.30;99.90
19152;DHT22;9708;53.114;9.388;2023-04-29T11:11:56;18.90;99.90
19152;DHT22;9708;53.114;9.388;2023-04-29T11:14:24;19.40;99.90
19152;DHT22;9708;53.114;9.388;2023-04-29T11:16:56;19.80;99.90
19152;DHT22;9708;53.114;9.388;2023-04-29T11:19:24;19.20;99.90
19152;DHT22;9708;53.114;9.388;2023-04-29T11:22:26;18.70;99.90
19152;DHT22;9708;53.114;9.388;2023-04-29T11:24:56;19.40;99.90
19152;DHT22;9708;53.114;9.388;2023-04-29T11:27:26;19.10;99.90
19152;DHT22;9708;53.114;9.388;2023-04-29T11:29:54;19.00;99.90
19152;DHT22;9708;53.114;9.388;2023-04-29T11:32:24;19.60;99.90
19152;DHT22;9708;53.114;9.388;2023-04-29T11:34:51;19.70;99.90
19152;DHT22;9708;53.114;9.388;2023-04-29T11:37:21;19.20;99.90
19152;DHT22;9708;53.114;9.388;2023-04-29T11:39:48;19.10;99.90
19152;DHT22;9708;53.114;9.388;2023-04-29T11:42:19;18.70;99.90
19152;DHT22;9708;53.114;9.388;2023-04-29T11:44:46;18.20;99.90
19152;DHT22;9708;53.114;9.388;2023-04-29T11:47:13;19.00;99.90
19152;DHT22;9708;53.114;9.388;2023-04-29T11:49:41;19.80;99.90
19152;DHT22;9708;53.114;9.388;2023-04-29T11:52:08;20.60;99.90
19152;DHT22;9708;53.114;9.388;2023-04-29T11:54:35;21.20;99.90
19152;DHT22;9708;53.114;9.388;2023-04-29T11:57:02;21.80;99.90
19152;DHT22;9708;53.114;9.388;2023-04-29T11:59:30;21.10;99.90
19152;DHT22;9708;53.114;9.388;2023-04-29T12:01:57;19.90;99.90
19152;DHT22;9708;53.114;9.388;2023-04-29T12:04:25;20.10;99.90
19152;DHT22;9708;53.114;9.388;2023-04-29T12:06:56;20.60;99.90
19152;DHT22;9708;53.114;9.388;2023-04-29T12:09:23;20.10;99.90
19152;DHT22;9708;53.114;9.388;2023-04-29T12:11:50;19.80;99.90
19152;DHT22;9708;53.114;9.388;2023-04-29T12:14:17;19.20;99.90
19152;DHT22;9708;53.114;9.388;2023-04-29T12:16:44;19.10;99.90
19152;DHT22;9708;53.114;9.388;2023-04-29T12:19:12;18.50;99.90
19152;DHT22;9708;53.114;9.388;2023-04-29T12:21:47;18.10;99.90
19152;DHT22;9708;53.114;9.388;2023-04-29T12:24:19;19.40;99.90
19152;DHT22;9708;53.114;9.388;2023-04-29T12:26:48;20.10;99.90
19152;DHT22;9708;53.114;9.388;2023-04-29T12:29:15;19.80;99.90
19152;DHT22;9708;53.114;9.388;2023-04-29T12:31:42;19.60;99.90
19152;DHT22;9708;53.114;9.388;2023-04-29T12:34:12;19.00;99.90
19152;DHT22;9708;53.114;9.388;2023-04-29T12:36:41;19.50;99.90
19152;DHT22;9708;53.114;9.388;2023-04-29T12:39:09;20.90;99.90
19152;DHT22;9708;53.114;9.388;2023-04-29T12:41:39;21.10;99.90
19152;DHT22;9708;53.114;9.388;2023-04-29T12:44:06;20.20;99.90
19152;DHT22;9708;53.114;9.388;2023-04-29T12:46:35;20.00;99.90
19152;DHT22;9708;53.114;9.388;2023-04-29T12:49:02;19.90;99.90
19152;DHT22;9708;53.114;9.388;2023-04-29T12:51:29;19.40;99.90
19152;DHT22;9708;53.114;9.388;2023-04-29T12:53:57;19.60;99.90
19152;DHT22;9708;53.114;9.388;2023-04-29T12:56:24;20.50;99.90
19152;DHT22;9708;53.114;9.388;2023-04-29T12:58:53;20.40;99.90
19152;DHT22;9708;53.114;9.388;2023-04-29T13:01:20;19.50;99.90
19152;DHT22;9708;53.114;9.388;2023-04-29T13:03:46;20.40;99.90
19152;DHT22;9708;53.114;9.388;2023-04-29T13:06:14;20.20;99.90
19152;DHT22;9708;53.114;9.388;2023-04-29T13:08:40;20.10;99.90
19152;DHT22;9708;53.114;9.388;2023-04-29T13:11:07;20.10;99.90
19152;DHT22;9708;53.114;9.388;2023-04-29T13:13:34;21.00;99.90
19152;DHT22;9708;53.114;9.388;2023-04-29T13:16:02;21.70;99.90
19152;DHT22;9708;53.114;9.388;2023-04-29T13:18:29;22.80;99.90
19152;DHT22;9708;53.114;9.388;2023-04-29T13:20:56;22.00;99.90
19152;DHT22;9708;53.114;9.388;2023-04-29T13:23:23;21.20;99.90
19152;DHT22;9708;53.114;9.388;2023-04-29T13:25:50;21.90;99.90
19152;DHT22;9708;53.114;9.388;2023-04-29T13:28:17;22.20;99.90
19152;DHT22;9708;53.114;9.388;2023-04-29T13:30:44;22.10;99.90
19152;DHT22;9708;53.114;9.388;2023-04-29T13:33:12;21.60;99.90
19152;DHT22;9708;53.114;9.388;2023-04-29T13:35:39;21.90;99.90
19152;DHT22;9708;53.114;9.388;2023-04-29T13:38:06;21.60;99.90
19152;DHT22;9708;53.114;9.388;2023-04-29T13:40:33;21.10;99.90
19152;DHT22;9708;53.114;9.388;2023-04-29T13:43:00;21.30;99.90
19152;DHT22;9708;53.114;9.388;2023-04-29T13:45:27;21.70;99.90
19152;DHT22;9708;53.114;9.388;2023-04-29T13:47:53;21.90;99.90
19152;DHT22;9708;53.114;9.388;2023-04-29T13:50:21;21.70;99.90
19152;DHT22;9708;53.114;9.388;2023-04-29T13:52:48;21.70;99.90
19152;DHT22;9708;53.114;9.388;2023-04-29T13:55:15;20.50;99.90
19152;DHT22;9708;53.114;9.388;2023-04-29T13:57:42;19.70;99.90
19152;DHT22;9708;53.114;9.388;2023-04-29T14:00:10;18.20;99.90
19152;DHT22;9708;53.114;9.388;2023-04-29T14:02:37;18.30;99.90
19152;DHT22;9708;53.114;9.388;2023-04-29T14:05:04;18.10;99.90
19152;DHT22;9708;53.114;9.388;2023-04-29T14:07:32;18.20;99.90
19152;DHT22;9708;53.114;9.388;2023-04-29T14:09:59;18.60;99.90
19152;DHT22;9708;53.114;9.388;2023-04-29T14:12:26;18.90;99.90
19152;DHT22;9708;53.114;9.388;2023-04-29T14:14:53;18.90;99.90
19152;DHT22;9708;53.114;9.388;2023-04-29T14:17:19;18.80;99.90
19152;DHT22;9708;53.114;9.388;2023-04-29T14:19:46;18.40;99.90
19152;DHT22;9708;53.114;9.388;2023-04-29T14:22:13;18.50;99.90
19152;DHT22;9708;53.114;9.388;2023-04-29T14:24:41;18.40;99.90
19152;DHT22;9708;53.114;9.388;2023-04-29T14:27:08;18.00;99.90
19152;DHT22;9708;53.114;9.388;2023-04-29T14:29:35;17.90;99.90
19152;DHT22;9708;53.114;9.388;2023-04-29T14:32:01;17.60;99.90
19152;DHT22;9708;53.114;9.388;2023-04-29T14:34:28;17.80;99.90
19152;DHT22;9708;53.114;9.388;2023-04-29T14:36:55;17.70;99.90
19152;DHT22;9708;53.114;9.388;2023-04-29T14:39:23;17.80;99.90
19152;DHT22;9708;53.114;9.388;2023-04-29T14:41:51;17.40;99.90
19152;DHT22;9708;53.114;9.388;2023-04-29T14:44:18;17.30;99.90
19152;DHT22;9708;53.114;9.388;2023-04-29T14:46:45;17.10;99.90
19152;DHT22;9708;53.114;9.388;2023-04-29T14:49:12;17.10;99.90
19152;DHT22;9708;53.114;9.388;2023-04-29T14:51:38;16.90;99.90
19152;DHT22;9708;53.114;9.388;2023-04-29T14:54:05;16.90;99.90
19152;DHT22;9708;53.114;9.388;2023-04-29T14:56:33;16.70;99.90
19152;DHT22;9708;53.114;9.388;2023-04-29T14:59:02;16.80;99.90
19152;DHT22;9708;53.114;9.388;2023-04-29T15:01:31;16.70;99.90
19152;DHT22;9708;53.114;9.388;2023-04-29T15:03:58;16.60;99.90
19152;DHT22;9708;53.114;9.388;2023-04-29T15:06:25;16.90;99.90
19152;DHT22;9708;53.114;9.388;2023-04-29T15:08:52;16.80;99.90
19152;DHT22;9708;53.114;9.388;2023-04-29T15:11:20;16.40;99.90
19152;DHT22;9708;53.114;9.388;2023-04-29T15:13:47;16.40;99.90
19152;DHT22;9708;53.114;9.388;2023-04-29T15:16:15;16.60;99.90
19152;DHT22;9708;53.114;9.388;2023-04-29T15:18:42;16.50;99.90
19152;DHT22;9708;53.114;9.388;2023-04-29T15:21:09;16.40;99.90
19152;DHT22;9708;53.114;9.388;2023-04-29T15:23:36;16.30;99.90
19152;DHT22;9708;53.114;9.388;2023-04-29T15:26:03;16.30;99.90
19152;DHT22;9708;53.114;9.388;2023-04-29T15:28:31;16.10;99.90
19152;DHT22;9708;53.114;9.388;2023-04-29T15:30:58;16.20;99.90
19152;DHT22;9708;53.114;9.388;2023-04-29T15:33:29;16.00;99.90
19152;DHT22;9708;53.114;9.388;2023-04-29T15:35:56;16.00;99.90
19152;DHT22;9708;53.114;9.388;2023-04-29T15:38:23;15.80;99.90
19152;DHT22;9708;53.114;9.388;2023-04-29T15:40:49;15.90;99.90
19152;DHT22;9708;53.114;9.388;2023-04-29T15:43:16;15.80;99.90
19152;DHT22;9708;53.114;9.388;2023-04-29T15:45:43;15.70;99.90
19152;DHT22;9708;53.114;9.388;2023-04-29T15:48:10;15.60;99.90
19152;DHT22;9708;53.114;9.388;2023-04-29T15:50:38;15.80;99.90
19152;DHT22;9708;53.114;9.388;2023-04-29T15:53:04;15.90;99.90
19152;DHT22;9708;53.114;9.388;2023-04-29T15:55:32;15.90;99.90